createdAt,value
2018-04-14T00:00:46.385Z,101046.66
2018-04-14T00:03:13.944Z,101048.78
2018-04-14T00:05:41.483Z,101055.68
2018-04-14T00:08:09.051Z,101056.90
2018-04-14T00:10:36.598Z,101057.97
2018-04-14T00:13:04.175Z,101063.08
2018-04-14T00:15:31.723Z,101074.06
2018-04-14T00:17:59.277Z,101072.02
2018-04-14T00:20:26.837Z,101071.69
2018-04-14T00:22:54.396Z,101071.34
2018-04-14T00:25:21.924Z,101073.16
2018-04-14T00:27:49.479Z,101069.27
2018-04-14T00:30:17.008Z,101073.79
2018-04-14T00:32:44.544Z,101075.72
2018-04-14T00:35:12.127Z,101076.61
2018-04-14T00:37:39.679Z,101081.94
2018-04-14T00:40:07.220Z,101083.76
2018-04-14T00:42:34.794Z,101085.09
2018-04-14T00:45:02.327Z,101090.03
2018-04-14T00:47:29.867Z,101085.55
2018-04-14T00:49:57.421Z,101090.41
2018-04-14T00:52:25.099Z,101093.06
2018-04-14T00:54:52.664Z,101086.33
2018-04-14T00:57:20.244Z,101088.48
2018-04-14T00:59:47.903Z,101088.46
2018-04-14T01:02:15.495Z,101087.24
2018-04-14T01:04:43.050Z,101090.84
2018-04-14T01:07:10.610Z,101086.76
2018-04-14T01:09:38.177Z,101089.25
2018-04-14T01:12:05.740Z,101092.63
2018-04-14T01:14:33.285Z,101091.47
2018-04-14T01:17:00.907Z,101084.09
2018-04-14T01:19:28.673Z,101074.63
2018-04-14T01:21:56.252Z,101077.61
2018-04-14T01:24:23.886Z,101072.39
2018-04-14T01:26:51.549Z,101069.09
2018-04-14T01:29:19.176Z,101077.45
2018-04-14T01:31:47.340Z,101077.56
2018-04-14T01:34:14.919Z,101080.33
2018-04-14T01:36:42.987Z,101078.25
2018-04-14T01:39:10.551Z,101077.00
2018-04-14T01:41:38.494Z,101088.06
2018-04-14T01:44:06.089Z,101090.69
2018-04-14T01:46:33.982Z,101091.06
2018-04-14T01:49:01.559Z,101088.69
2018-04-14T01:51:29.248Z,101089.12
2018-04-14T01:53:56.823Z,101087.27
2018-04-14T01:56:24.361Z,101087.30
2018-04-14T01:58:51.951Z,101089.44
2018-04-14T02:01:19.508Z,101087.11
2018-04-14T02:03:47.209Z,101095.77
2018-04-14T02:06:14.763Z,101099.47
2018-04-14T02:08:42.424Z,101106.94
2018-04-14T02:11:09.965Z,101104.70
2018-04-14T02:13:37.611Z,101108.86
2018-04-14T02:16:05.216Z,101109.86
2018-04-14T02:18:33.392Z,101102.55
2018-04-14T02:21:01.090Z,101113.08
2018-04-14T02:23:29.014Z,101109.61
2018-04-14T02:25:56.643Z,101110.80
2018-04-14T02:28:24.573Z,101102.93
2018-04-14T02:30:52.150Z,101111.78
2018-04-14T02:33:20.058Z,101104.93
2018-04-14T02:35:47.646Z,101111.99
2018-04-14T02:38:15.195Z,101101.17
2018-04-14T02:40:42.822Z,101102.38
2018-04-14T02:43:10.357Z,101098.66
2018-04-14T02:45:37.930Z,101098.53
2018-04-14T02:48:05.498Z,101099.61
2018-04-14T02:50:33.071Z,101107.26
2018-04-14T02:53:00.616Z,101105.69
2018-04-14T02:55:28.256Z,101104.58
2018-04-14T02:57:55.836Z,101107.22
2018-04-14T03:00:23.436Z,101110.40
2018-04-14T03:02:50.998Z,101110.23
2018-04-14T03:05:18.597Z,101115.71
2018-04-14T03:07:46.171Z,101107.55
2018-04-14T03:10:14.551Z,101106.20
2018-04-14T03:12:42.289Z,101114.22
2018-04-14T03:15:10.357Z,101121.53
2018-04-14T03:17:56.005Z,101125.94
2018-04-14T03:20:23.587Z,101125.27
2018-04-14T03:22:51.161Z,101129.05
2018-04-14T03:25:18.758Z,101127.44
2018-04-14T03:27:46.311Z,101138.18
2018-04-14T03:30:13.865Z,101138.33
2018-04-14T03:32:41.400Z,101144.21
2018-04-14T03:35:08.991Z,101140.84
2018-04-14T03:40:35.228Z,101144.98
2018-04-14T03:43:02.772Z,101145.47
2018-04-14T03:45:30.832Z,101158.07
2018-04-14T03:47:58.399Z,101155.77
2018-04-14T03:50:26.338Z,101162.97
2018-04-14T03:52:53.946Z,101161.49
2018-04-14T03:55:21.675Z,101159.28
2018-04-14T03:57:49.241Z,101160.84
2018-04-14T04:00:16.772Z,101164.71
2018-04-14T04:02:44.469Z,101164.78
2018-04-14T04:05:12.027Z,101168.49
2018-04-14T04:07:39.612Z,101167.97
2018-04-14T04:10:07.169Z,101178.94
2018-04-14T04:12:34.745Z,101180.31
2018-04-14T04:15:02.305Z,101181.92
2018-04-14T04:17:29.929Z,101180.52
2018-04-14T04:20:09.278Z,101176.24
2018-04-14T04:22:49.661Z,101189.42
2018-04-14T04:25:30.284Z,101194.36
2018-04-14T04:27:57.839Z,101194.78
2018-04-14T04:30:25.417Z,101200.25
2018-04-14T04:32:53.059Z,101206.69
2018-04-14T04:35:20.994Z,101206.05
2018-04-14T04:37:48.643Z,101209.74
2018-04-14T04:40:16.611Z,101218.18
2018-04-14T04:42:44.720Z,101224.16
2018-04-14T04:45:12.816Z,101226.63
2018-04-14T04:47:40.363Z,101233.02
2018-04-14T04:50:09.164Z,101232.30
2018-04-14T04:52:36.899Z,101230.77
2018-04-14T04:55:04.483Z,101230.93
2018-04-14T04:57:32.510Z,101230.98
2018-04-14T05:00:00.304Z,101233.50
2018-04-14T05:02:28.741Z,101240.39
2018-04-14T05:04:56.360Z,101241.81
2018-04-14T05:07:23.905Z,101240.61
2018-04-14T05:09:51.483Z,101240.84
2018-04-14T05:12:19.034Z,101245.98
2018-04-14T05:14:46.789Z,101248.62
2018-04-14T05:17:14.389Z,101248.14
2018-04-14T05:19:43.067Z,101254.53
2018-04-14T05:22:11.158Z,101254.37
2018-04-14T05:24:40.100Z,101254.08
2018-04-14T05:27:08.147Z,101256.14
2018-04-14T05:29:35.733Z,101261.00
2018-04-14T05:32:03.637Z,101258.45
2018-04-14T05:34:31.360Z,101261.09
2018-04-14T05:36:59.372Z,101264.17
2018-04-14T05:39:27.049Z,101275.59
2018-04-14T05:41:54.610Z,101283.59
2018-04-14T05:44:22.749Z,101285.07
2018-04-14T05:46:50.305Z,101291.55
2018-04-14T05:49:17.873Z,101298.59
2018-04-14T05:51:45.433Z,101302.70
2018-04-14T05:54:13.570Z,101304.17
2018-04-14T05:56:41.172Z,101309.84
2018-04-14T05:59:08.990Z,101311.87
2018-04-14T06:01:36.561Z,101311.72
2018-04-14T06:04:04.458Z,101314.07
2018-04-14T06:06:32.026Z,101304.08
2018-04-14T06:08:59.614Z,101310.23
2018-04-14T06:11:27.159Z,101311.23
2018-04-14T06:13:54.710Z,101312.84
2018-04-14T06:16:22.270Z,101309.88
2018-04-14T06:18:49.827Z,101308.13
2018-04-14T06:21:17.389Z,101314.74
2018-04-14T06:23:44.936Z,101313.44
2018-04-14T06:26:12.524Z,101320.03
2018-04-14T06:28:40.085Z,101324.97
2018-04-14T06:31:07.667Z,101330.87
2018-04-14T06:33:35.232Z,101338.52
2018-04-14T06:36:02.790Z,101339.03
2018-04-14T06:38:30.377Z,101346.06
2018-04-14T06:40:57.929Z,101356.32
2018-04-14T06:43:25.450Z,101355.59
2018-04-14T06:45:53.031Z,101363.42
2018-04-14T06:48:20.604Z,101355.55
2018-04-14T06:50:48.165Z,101360.12
2018-04-14T06:53:15.728Z,101357.83
2018-04-14T06:55:43.294Z,101362.83
2018-04-14T06:58:10.835Z,101363.24
2018-04-14T07:00:38.369Z,101368.53
2018-04-14T07:03:06.010Z,101370.77
2018-04-14T07:05:33.600Z,101375.55
2018-04-14T07:08:01.162Z,101372.08
2018-04-14T07:10:28.715Z,101376.97
2018-04-14T07:12:56.288Z,101377.41
2018-04-14T07:15:24.584Z,101376.36
2018-04-14T07:17:52.125Z,101376.84
2018-04-14T07:20:19.895Z,101375.23
2018-04-14T07:22:47.444Z,101380.98
2018-04-14T07:25:15.519Z,101385.69
2018-04-14T07:27:43.100Z,101387.81
2018-04-14T07:30:10.967Z,101387.62
2018-04-14T07:32:38.539Z,101383.06
2018-04-14T07:35:06.498Z,101385.97
2018-04-14T07:37:34.068Z,101385.97
2018-04-14T07:40:01.645Z,101401.61
2018-04-14T07:42:29.202Z,101399.38
2018-04-14T07:44:56.743Z,101396.67
2018-04-14T07:47:24.355Z,101399.82
2018-04-14T07:49:51.925Z,101397.80
2018-04-14T07:52:19.472Z,101399.36
2018-04-14T07:54:47.006Z,101401.53
2018-04-14T07:57:14.572Z,101412.74
2018-04-14T07:59:42.131Z,101415.42
2018-04-14T08:02:09.732Z,101411.31
2018-04-14T08:04:37.305Z,101419.58
2018-04-14T08:07:04.879Z,101423.72
2018-04-14T08:09:32.428Z,101424.34
2018-04-14T08:11:59.995Z,101427.27
2018-04-14T08:14:27.548Z,101421.09
2018-04-14T08:16:55.095Z,101431.62
2018-04-14T08:19:22.672Z,101435.01
2018-04-14T08:21:50.238Z,101429.72
2018-04-14T08:24:17.801Z,101442.59
2018-04-14T08:26:45.370Z,101445.41
2018-04-14T08:29:12.920Z,101447.84
2018-04-14T08:31:40.468Z,101455.62
2018-04-14T08:34:07.995Z,101458.29
2018-04-14T08:36:35.518Z,101461.66
2018-04-14T08:39:03.116Z,101457.31
2018-04-14T08:41:30.671Z,101455.81
2018-04-14T08:43:58.230Z,101459.91
2018-04-14T08:46:25.774Z,101455.49
2018-04-14T08:48:53.338Z,101458.55
2018-04-14T08:51:20.957Z,101460.05
2018-04-14T08:53:48.515Z,101460.37
2018-04-14T08:56:16.147Z,101463.20
2018-04-14T08:58:43.676Z,101468.31
2018-04-14T09:01:11.278Z,101468.33
2018-04-14T09:03:38.827Z,101468.48
2018-04-14T09:06:06.384Z,101466.56
2018-04-14T09:08:33.960Z,101473.50
2018-04-14T09:11:01.509Z,101472.49
2018-04-14T09:13:29.054Z,101470.70
2018-04-14T09:15:56.659Z,101472.66
2018-04-14T09:18:24.250Z,101472.48
2018-04-14T09:20:51.791Z,101466.38
2018-04-14T09:23:19.606Z,101467.23
2018-04-14T09:25:47.184Z,101467.34
2018-04-14T09:28:14.726Z,101469.23
2018-04-14T09:30:42.295Z,101469.67
2018-04-14T09:33:09.839Z,101469.97
2018-04-14T09:35:37.514Z,101473.19
2018-04-14T09:38:05.086Z,101477.55
2018-04-14T09:40:32.638Z,101474.65
2018-04-14T09:43:00.187Z,101472.14
2018-04-14T09:45:27.845Z,101472.97
2018-04-14T09:47:55.368Z,101470.09
2018-04-14T09:50:23.005Z,101476.45
2018-04-14T09:52:50.564Z,101475.45
2018-04-14T09:55:18.154Z,101478.50
2018-04-14T09:57:45.689Z,101473.67
2018-04-14T10:00:18.959Z,101476.05
2018-04-14T10:02:46.521Z,101480.84
2018-04-14T10:05:14.097Z,101480.56
2018-04-14T10:07:41.669Z,101484.56
2018-04-14T10:10:09.686Z,101487.78
2018-04-14T10:12:37.221Z,101482.38
2018-04-14T10:15:05.199Z,101486.88
2018-04-14T10:17:32.885Z,101480.98
2018-04-14T10:20:00.635Z,101478.42
2018-04-14T10:22:29.149Z,101482.31
2018-04-14T10:24:56.707Z,101469.55
2018-04-14T10:27:24.472Z,101475.37
2018-04-14T10:29:52.019Z,101471.56
2018-04-14T10:32:19.590Z,101466.12
2018-04-14T10:34:47.125Z,101470.46
2018-04-14T10:37:14.724Z,101472.50
2018-04-14T10:39:42.288Z,101471.86
2018-04-14T10:42:10.266Z,101467.26
2018-04-14T10:44:37.802Z,101455.31
2018-04-14T10:47:05.897Z,101462.25
2018-04-14T10:49:33.479Z,101460.42
2018-04-14T10:52:01.366Z,101455.70
2018-04-14T10:54:28.926Z,101453.22
2018-04-14T10:56:56.476Z,101455.99
2018-04-14T10:59:24.053Z,101458.83
2018-04-14T11:01:51.602Z,101459.88
2018-04-14T11:04:19.173Z,101459.40
2018-04-14T11:06:46.741Z,101460.70
2018-04-14T11:09:14.281Z,101457.11
2018-04-14T11:11:41.803Z,101453.47
2018-04-14T11:14:09.350Z,101454.90
2018-04-14T11:16:36.958Z,101468.78
2018-04-14T11:19:04.541Z,101463.95
2018-04-14T11:21:32.362Z,101460.34
2018-04-14T11:23:59.920Z,101456.48
2018-04-14T11:26:27.452Z,101459.78
2018-04-14T11:28:55.025Z,101461.38
2018-04-14T11:31:22.588Z,101456.97
2018-04-14T11:33:50.293Z,101456.21
2018-04-14T11:36:17.873Z,101457.13
2018-04-14T11:38:45.451Z,101456.69
2018-04-14T11:41:13.012Z,101450.56
2018-04-14T11:43:40.568Z,101450.75
2018-04-14T11:46:08.119Z,101452.91
2018-04-14T11:48:35.717Z,101455.64
2018-04-14T11:51:03.272Z,101455.45
2018-04-14T11:53:30.876Z,101455.98
2018-04-14T11:55:58.428Z,101454.53
2018-04-14T11:58:26.018Z,101454.02
2018-04-14T12:00:53.571Z,101453.19
2018-04-14T12:03:22.208Z,101455.81
2018-04-14T12:05:49.761Z,101449.63
2018-04-14T12:08:17.816Z,101455.81
2018-04-14T12:10:45.349Z,101459.77
2018-04-14T12:13:13.227Z,101463.59
2018-04-14T12:15:40.793Z,101462.51
2018-04-14T12:18:08.698Z,101462.20
2018-04-14T12:20:36.252Z,101463.98
2018-04-14T12:23:04.062Z,101457.08
2018-04-14T12:25:31.620Z,101454.76
2018-04-14T12:27:59.171Z,101448.83
2018-04-14T12:30:26.773Z,101459.42
2018-04-14T12:32:54.318Z,101452.67
2018-04-14T12:35:21.879Z,101451.04
2018-04-14T12:37:49.542Z,101451.94
2018-04-14T12:40:17.141Z,101452.52
2018-04-14T12:42:44.686Z,101458.50
2018-04-14T12:45:12.295Z,101460.96
2018-04-14T12:47:39.862Z,101457.49
2018-04-14T12:50:07.518Z,101447.09
2018-04-14T12:52:35.025Z,101443.97
2018-04-14T12:55:03.205Z,101442.01
2018-04-14T12:57:30.774Z,101449.70
2018-04-14T12:59:58.820Z,101446.33
2018-04-14T13:02:26.361Z,101450.04
2018-04-14T13:04:54.339Z,101454.41
2018-04-14T13:07:21.871Z,101455.16
2018-04-14T13:09:49.837Z,101450.63
2018-04-14T13:12:17.412Z,101439.50
2018-04-14T13:14:44.945Z,101434.21
2018-04-14T13:17:12.504Z,101437.86
2018-04-14T13:19:40.053Z,101432.52
2018-04-14T13:22:07.692Z,101435.94
2018-04-14T13:24:35.231Z,101441.48
2018-04-14T13:27:02.799Z,101440.73
2018-04-14T13:29:30.323Z,101438.84
2018-04-14T13:31:57.895Z,101434.78
2018-04-14T13:34:25.453Z,101436.85
2018-04-14T13:36:53.045Z,101436.28
2018-04-14T13:39:20.597Z,101440.91
2018-04-14T13:41:48.204Z,101435.02
2018-04-14T13:44:15.730Z,101428.33
2018-04-14T13:46:43.315Z,101435.80
2018-04-14T13:49:10.843Z,101437.89
2018-04-14T13:51:38.463Z,101431.28
2018-04-14T13:54:06.020Z,101436.46
2018-04-14T13:56:33.576Z,101433.47
2018-04-14T13:59:01.135Z,101428.88
2018-04-14T14:01:28.716Z,101419.61
2018-04-14T14:03:56.276Z,101422.93
2018-04-14T14:06:23.837Z,101409.86
2018-04-14T14:08:51.436Z,101414.41
2018-04-14T14:11:19.035Z,101410.19
2018-04-14T14:13:46.576Z,101399.09
2018-04-14T14:16:14.119Z,101402.42
2018-04-14T14:18:41.659Z,101401.19
2018-04-14T14:21:09.302Z,101388.10
2018-04-14T14:23:36.874Z,101385.17
2018-04-14T14:26:04.428Z,101384.25
2018-04-14T14:28:31.994Z,101385.87
2018-04-14T14:31:00.128Z,101383.84
2018-04-14T14:33:27.675Z,101377.80
2018-04-14T14:35:55.313Z,101379.23
2018-04-14T14:38:22.804Z,101368.78
2018-04-14T14:40:50.365Z,101366.28
2018-04-14T14:43:17.903Z,101364.54
2018-04-14T14:45:45.430Z,101359.54
2018-04-14T14:48:12.997Z,101353.66
2018-04-14T14:50:40.547Z,101351.33
2018-04-14T14:53:08.107Z,101353.18
2018-04-14T14:55:36.161Z,101349.38
2018-04-14T14:58:03.714Z,101344.20
2018-04-14T15:00:31.756Z,101344.20
2018-04-14T15:02:59.318Z,101341.11
2018-04-14T15:05:27.204Z,101343.88
2018-04-14T15:07:54.777Z,101347.01
2018-04-14T15:10:22.357Z,101344.57
2018-04-14T15:12:50.919Z,101342.34
2018-04-14T15:15:18.465Z,101337.36
2018-04-14T15:17:46.022Z,101328.36
2018-04-14T15:20:13.579Z,101328.67
2018-04-14T15:22:41.107Z,101324.05
2018-04-14T15:25:08.740Z,101327.51
2018-04-14T15:27:36.283Z,101323.80
2018-04-14T15:30:03.840Z,101321.52
2018-04-14T15:32:31.422Z,101319.62
2018-04-14T15:34:58.983Z,101321.31
2018-04-14T15:37:27.167Z,101323.56
2018-04-14T15:39:54.724Z,101324.71
2018-04-14T15:42:22.746Z,101323.73
2018-04-14T15:44:50.307Z,101323.17
2018-04-14T15:47:17.980Z,101331.30
2018-04-14T15:49:45.524Z,101327.81
2018-04-14T15:52:13.077Z,101325.50
2018-04-14T15:54:40.665Z,101320.74
2018-04-14T15:57:08.207Z,101322.90
2018-04-14T15:59:35.757Z,101326.23
2018-04-14T16:02:03.301Z,101320.45
2018-04-14T16:04:30.906Z,101326.72
2018-04-14T16:06:58.472Z,101325.17
2018-04-14T16:09:26.101Z,101323.56
2018-04-14T16:11:53.682Z,101325.31
2018-04-14T16:14:21.285Z,101327.02
2018-04-14T16:16:48.811Z,101327.02
2018-04-14T16:19:16.447Z,101327.63
2018-04-14T16:21:44.046Z,101330.86
2018-04-14T16:24:11.672Z,101331.13
2018-04-14T16:26:39.206Z,101328.05
2018-04-14T16:29:06.783Z,101328.48
2018-04-14T16:31:34.378Z,101328.68
2018-04-14T16:34:01.997Z,101325.37
2018-04-14T16:36:29.532Z,101322.41
2018-04-14T16:38:57.635Z,101321.44
2018-04-14T16:41:25.195Z,101327.77
2018-04-14T16:43:53.306Z,101325.37
2018-04-14T16:46:20.851Z,101324.11
2018-04-14T16:48:48.715Z,101325.65
2018-04-14T16:51:16.262Z,101324.06
2018-04-14T16:53:44.223Z,101321.19
2018-04-14T16:56:11.777Z,101323.64
2018-04-14T16:58:39.314Z,101319.84
2018-04-14T17:01:06.891Z,101310.88
2018-04-14T17:03:34.437Z,101306.68
2018-04-14T17:06:02.030Z,101311.80
2018-04-14T17:08:29.607Z,101310.66
2018-04-14T17:10:57.166Z,101311.87
2018-04-14T17:13:24.708Z,101308.09
2018-04-14T17:15:52.269Z,101313.23
2018-04-14T17:18:19.798Z,101311.66
2018-04-14T17:20:47.383Z,101310.12
2018-04-14T17:23:14.929Z,101311.17
2018-04-14T17:25:42.599Z,101315.22
2018-04-14T17:28:10.152Z,101308.32
2018-04-14T17:30:39.159Z,101306.34
2018-04-14T17:33:06.694Z,101306.06
2018-04-14T17:35:34.651Z,101309.17
2018-04-14T17:38:02.228Z,101316.41
2018-04-14T17:40:29.981Z,101315.61
2018-04-14T17:42:57.513Z,101312.63
2018-04-14T17:45:25.054Z,101313.06
2018-04-14T17:47:52.592Z,101311.38
2018-04-14T17:50:20.146Z,101310.39
2018-04-14T17:52:47.708Z,101311.94
2018-04-14T17:55:15.305Z,101307.53
2018-04-14T17:57:42.869Z,101311.87
2018-04-14T18:00:10.397Z,101309.96
2018-04-14T18:02:37.941Z,101308.04
2018-04-14T18:05:05.493Z,101309.53
2018-04-14T18:07:33.022Z,101310.77
2018-04-14T18:10:00.562Z,101303.93
2018-04-14T18:12:28.114Z,101300.02
2018-04-14T18:14:55.750Z,101303.30
2018-04-14T18:17:23.360Z,101311.61
2018-04-14T18:19:50.874Z,101301.61
2018-04-14T18:22:18.437Z,101304.83
2018-04-14T18:24:45.965Z,101294.94
2018-04-14T18:27:13.529Z,101299.95
2018-04-14T18:29:41.083Z,101292.02
2018-04-14T18:32:08.657Z,101295.23
2018-04-14T18:34:36.194Z,101301.52
2018-04-14T18:37:03.778Z,101306.97
2018-04-14T18:39:31.316Z,101313.00
2018-04-14T18:41:58.883Z,101305.59
2018-04-14T18:44:26.426Z,101308.98
2018-04-14T18:46:53.971Z,101313.50
2018-04-14T18:49:21.535Z,101308.63
2018-04-14T18:51:49.076Z,101316.27
2018-04-14T18:54:16.631Z,101316.42
2018-04-14T18:56:44.210Z,101316.99
2018-04-14T18:59:11.739Z,101310.83
2018-04-14T19:01:39.289Z,101314.50
2018-04-14T19:04:06.837Z,101313.36
2018-04-14T19:06:34.439Z,101321.37
2018-04-14T19:09:01.960Z,101319.70
2018-04-14T19:11:29.527Z,101319.84
2018-04-14T19:13:57.083Z,101317.80
2018-04-14T19:16:24.655Z,101314.30
2018-04-14T19:18:52.200Z,101316.58
2018-04-14T19:21:19.739Z,101315.88
2018-04-14T19:23:50.223Z,101310.06
2018-04-14T19:26:17.781Z,101309.70
2018-04-14T19:28:45.361Z,101302.94
2018-04-14T19:31:12.890Z,101308.66
2018-04-14T19:33:40.460Z,101307.58
2018-04-14T19:36:08.018Z,101304.98
2018-04-14T19:38:35.605Z,101316.16
2018-04-14T19:41:03.155Z,101311.86
2018-04-14T19:43:30.725Z,101302.33
2018-04-14T19:45:58.272Z,101295.77
2018-04-14T19:48:25.865Z,101309.91
2018-04-14T19:50:53.400Z,101308.23
2018-04-14T19:53:21.571Z,101302.70
2018-04-14T19:55:49.091Z,101299.64
2018-04-14T19:58:16.793Z,101304.77
2018-04-14T20:00:44.337Z,101298.20
2018-04-14T20:03:13.025Z,101299.48
2018-04-14T20:05:40.606Z,101297.05
2018-04-14T20:08:08.711Z,101287.45
2018-04-14T20:10:36.266Z,101289.53
2018-04-14T20:13:04.471Z,101299.11
2018-04-14T20:15:32.029Z,101300.27
2018-04-14T20:17:59.666Z,101301.31
2018-04-14T20:20:27.229Z,101305.58
2018-04-14T20:22:54.772Z,101301.28
2018-04-14T20:25:22.407Z,101306.25
2018-04-14T20:27:49.953Z,101306.12
2018-04-14T20:30:17.527Z,101307.25
2018-04-14T20:32:45.080Z,101305.89
2018-04-14T20:35:12.669Z,101305.85
2018-04-14T20:37:40.204Z,101303.22
2018-04-14T20:40:07.757Z,101305.72
2018-04-14T20:42:35.289Z,101302.69
2018-04-14T20:45:02.874Z,101299.35
2018-04-14T20:47:30.404Z,101297.95
2018-04-14T20:49:58.011Z,101290.98
2018-04-14T20:52:25.583Z,101287.13
2018-04-14T20:54:53.778Z,101280.66
2018-04-14T20:57:21.369Z,101280.98
2018-04-14T20:59:49.490Z,101278.75
2018-04-14T21:02:17.053Z,101280.19
2018-04-14T21:04:44.951Z,101275.48
2018-04-14T21:07:12.576Z,101277.75
2018-04-14T21:09:40.396Z,101275.31
2018-04-14T21:12:07.981Z,101270.38
2018-04-14T21:14:35.515Z,101267.72
2018-04-14T21:17:03.061Z,101261.92
2018-04-14T21:19:30.588Z,101267.28
2018-04-14T21:21:58.131Z,101264.42
2018-04-14T21:24:25.731Z,101268.58
2018-04-14T21:26:53.324Z,101270.61
2018-04-14T21:29:20.846Z,101267.52
2018-04-14T21:31:48.455Z,101263.31
2018-04-14T21:34:15.987Z,101262.44
2018-04-14T21:36:43.579Z,101253.98
2018-04-14T21:39:11.130Z,101252.31
2018-04-14T21:41:38.710Z,101253.69
2018-04-14T21:44:06.250Z,101254.11
2018-04-14T21:46:33.830Z,101256.98
2018-04-14T21:49:01.378Z,101243.61
2018-04-14T21:51:28.930Z,101238.42
2018-04-14T21:53:56.471Z,101239.23
2018-04-14T21:56:24.065Z,101236.20
2018-04-14T21:58:51.591Z,101228.64
2018-04-14T22:01:19.161Z,101228.14
2018-04-14T22:03:46.700Z,101218.48
2018-04-14T22:06:14.347Z,101215.51
2018-04-14T22:08:41.914Z,101223.44
2018-04-14T22:11:10.137Z,101220.73
2018-04-14T22:13:37.729Z,101219.17
2018-04-14T22:16:05.806Z,101213.84
2018-04-14T22:18:33.371Z,101220.70
2018-04-14T22:21:01.252Z,101215.84
2018-04-14T22:23:28.811Z,101218.07
2018-04-14T22:25:56.699Z,101221.99
2018-04-14T22:28:24.274Z,101213.43
2018-04-14T22:30:51.795Z,101216.43
2018-04-14T22:33:19.451Z,101212.56
2018-04-14T22:35:46.990Z,101214.86
2018-04-14T22:38:14.577Z,101220.94
2018-04-14T22:40:42.165Z,101218.28
2018-04-14T22:43:09.789Z,101219.27
2018-04-14T22:45:37.310Z,101229.16
2018-04-14T22:48:04.850Z,101226.46
2018-04-14T22:50:32.400Z,101230.92
2018-04-14T22:52:59.972Z,101229.78
2018-04-14T22:55:27.529Z,101245.05
2018-04-14T22:57:55.105Z,101273.48
2018-04-14T23:00:22.648Z,101275.44
2018-04-14T23:02:50.219Z,101280.36
2018-04-14T23:05:17.758Z,101270.89
2018-04-14T23:07:45.330Z,101275.23
2018-04-14T23:10:12.885Z,101274.28
2018-04-14T23:12:41.140Z,101274.03
2018-04-14T23:15:08.675Z,101279.10
2018-04-14T23:17:36.743Z,101286.12
2018-04-14T23:20:04.315Z,101291.75
2018-04-14T23:22:32.197Z,101285.81
2018-04-14T23:24:59.811Z,101288.03
2018-04-14T23:27:27.630Z,101291.22
2018-04-14T23:29:55.239Z,101287.52
2018-04-14T23:32:22.804Z,101287.64
2018-04-14T23:34:50.385Z,101287.38
2018-04-14T23:37:17.937Z,101284.22
2018-04-14T23:39:45.485Z,101282.96
2018-04-14T23:42:13.041Z,101286.14
2018-04-14T23:44:40.604Z,101284.58
2018-04-14T23:47:08.160Z,101277.52
2018-04-14T23:49:35.739Z,101276.97
2018-04-14T23:52:03.270Z,101276.86
2018-04-14T23:54:30.830Z,101271.14
2018-04-14T23:56:58.357Z,101268.19
2018-04-14T23:59:25.981Z,101273.27
